Kankakee, IL

8:54 AM CDT on April 30, 2017 (GMT -0500)
Greater Kankakee

Weather History for KIKK - January, 2013

Change the Weather History Date:

Friday, January 18, 2013

  Actual Average Record
Temperature  
Mean Temperature 27 °F -  
Max Temperature 39 °F 29 °F 59 °F (1990)
Min Temperature 15 °F 11 °F -14 °F (1977)
Degree Days  
Heating Degree Days 38    
Moisture  
Dew Point 22 °F    
Average Humidity 74    
Maximum Humidity 89    
Minimum Humidity 57    
Precipitation  
Precipitation 0.00 in - - ()
Sea Level Pressure  
Sea Level Pressure 30.24 in    
Wind  
Wind Speed 12 mph (SSW)    
Max Wind Speed 28 mph    
Max Gust Speed 36 mph    
Visibility 10 miles    
Events      
Averages and records for this station are not official NWS values.
T = Trace of Precipitation, MM = Missing Value Source: NWS Daily Summary

Daily Weather History Graph

Daily Weather History Graph

Search for Another Location

Airport or City:

Trip Planner

Search our weather history database for the weather conditions in past years. The results will help you decide how hot, cold, wet, or windy it might be!

Date:

Astronomy

Jan. 18, 2013 Rise Set
Actual Time 7:12 AM CST 4:51 PM CST
Civil Twilight 6:42 AM CST 5:21 PM CST
Nautical Twilight 6:08 AM CST 5:55 PM CST
Astronomical Twilight 5:36 AM CST 6:28 PM CST
Moon 10:46 AM CST (1/18) No Moon Set
Length of Visible Light 10h 39m
Length of Day
9h 38m
Waxing Crescent, 47% of the Moon is Illuminated
Jan 18
Waxing Crescent
Jan 18
First Quarter
Jan 26
Full
Feb 3
Last Quarter
Feb 10
New

Hourly Weather History & Observations

Time (CST) Temp. Windchill Dew Point Humidity Pressure Visibility Wind Dir Wind Speed Gust Speed Precip Events Conditions
12:15 AM 18.9 °F 10.8 °F 14.7 °F 84% 30.43 in 10.0 mi WSW 5.8 mph - N/A   Clear
12:35 AM 20.1 °F 13.6 °F 15.4 °F 82% 30.43 in 10.0 mi West 4.6 mph - N/A   Clear
12:55 AM 19.2 °F 14.1 °F 14.9 °F 83% 30.43 in 10.0 mi West 3.5 mph - N/A   Clear
1:15 AM 18.7 °F - 14.7 °F 85% 30.45 in 10.0 mi Calm Calm - N/A   Clear
1:35 AM 18.5 °F 11.7 °F 14.4 °F 84% 30.45 in 10.0 mi WSW 4.6 mph - N/A   Clear
1:55 AM 16.0 °F - 12.6 °F 86% 30.44 in 10.0 mi Calm Calm - N/A   Clear
2:15 AM 16.5 °F 8.1 °F 13.6 °F 88% 30.45 in 10.0 mi SW 5.8 mph - N/A   Clear
2:35 AM 16.2 °F 6.5 °F 13.1 °F 88% 30.45 in 10.0 mi SSW 6.9 mph - N/A   Clear
2:55 AM 15.8 °F 8.6 °F 13.1 °F 89% 30.44 in 10.0 mi SSW 4.6 mph - N/A   Clear
3:15 AM 15.8 °F 7.2 °F 13.1 °F 89% 30.44 in 10.0 mi SSW 5.8 mph - N/A   Clear
3:35 AM 16.2 °F 9.0 °F 13.5 °F 89% 30.44 in 10.0 mi SSW 4.6 mph - N/A   Clear
3:55 AM 16.7 °F 9.6 °F 14.0 °F 89% 30.44 in 10.0 mi SSW 4.6 mph - N/A   Clear
4:15 AM 17.6 °F 12.3 °F 14.9 °F 89% 30.44 in 10.0 mi SSW 3.5 mph - N/A   Clear
4:35 AM 18.0 °F 9.8 °F 14.9 °F 88% 30.43 in 10.0 mi SW 5.8 mph - N/A   Clear
4:55 AM 17.8 °F 10.9 °F 14.5 °F 87% 30.42 in 10.0 mi South 4.6 mph - N/A   Clear
5:15 AM 18.3 °F 13.1 °F 14.5 °F 85% 30.42 in 10.0 mi South 3.5 mph - N/A   Clear
5:35 AM 18.3 °F 9.1 °F 14.9 °F 86% 30.42 in 10.0 mi South 6.9 mph - N/A   Clear
5:55 AM 18.9 °F 9.8 °F 15.3 °F 86% 30.42 in 10.0 mi South 6.9 mph - N/A   Clear
6:15 AM 19.4 °F 10.4 °F 15.8 °F 86% 30.42 in 10.0 mi South 6.9 mph - N/A   Clear
6:35 AM 19.9 °F 10.1 °F 16.3 °F 86% 30.42 in 10.0 mi South 8.1 mph - N/A   Clear
6:55 AM 20.3 °F 11.5 °F 16.7 °F 86% 30.42 in 10.0 mi South 6.9 mph - N/A   Scattered Clouds
7:15 AM 20.3 °F 12.5 °F 16.5 °F 85% 30.41 in 10.0 mi South 5.8 mph - N/A   Clear
7:35 AM 21.2 °F 10.9 °F 17.1 °F 84% 30.40 in 10.0 mi South 9.2 mph - N/A   Clear
7:55 AM 22.3 °F 13.9 °F 18.3 °F 85% 30.40 in 10.0 mi South 6.9 mph - N/A   Clear
8:15 AM 23.9 °F 12.9 °F 19.9 °F 85% 30.39 in 10.0 mi South 11.5 mph - N/A   Clear
8:35 AM 25.7 °F 13.5 °F 20.8 °F 82% 30.39 in 10.0 mi South 15.0 mph - N/A   Clear
8:55 AM 27.5 °F 16.3 °F 21.9 °F 80% 30.39 in 10.0 mi South 13.8 mph - N/A   Clear
9:15 AM 29.8 °F 19.3 °F 22.3 °F 73% 30.39 in 10.0 mi South 13.8 mph 18.4 mph N/A   Clear
9:35 AM 31.8 °F 22.3 °F 23.5 °F 71% 30.38 in 10.0 mi South 12.7 mph - N/A   Scattered Clouds
9:55 AM 32.9 °F 22.0 °F 22.8 °F 66% 30.37 in 10.0 mi SSW 17.3 mph 24.2 mph N/A   Scattered Clouds
10:15 AM 33.8 °F 22.5 °F 22.5 °F 63% 30.36 in 10.0 mi SSW 19.6 mph 28.8 mph N/A   Clear
10:35 AM 34.7 °F 23.1 °F 22.1 °F 60% 30.35 in 10.0 mi SSW 21.9 mph 32.2 mph N/A   Clear
10:55 AM 35.4 °F 23.7 °F 22.3 °F 59% 30.33 in 10.0 mi South 23.0 mph 29.9 mph N/A   Clear
11:15 AM 36.7 °F 25.1 °F 22.8 °F 57% 30.31 in 10.0 mi SSW 24.2 mph 33.4 mph N/A   Clear
11:35 AM 36.1 °F 24.7 °F 23.0 °F 59% 30.29 in 10.0 mi SSW 23.0 mph 33.4 mph N/A   Clear
11:55 AM 37.4 °F 27.8 °F 23.9 °F 58% 30.28 in 10.0 mi SSW 17.3 mph 32.2 mph N/A   Clear
12:15 PM 36.9 °F 25.4 °F 23.7 °F 59% 30.26 in 10.0 mi SSW 24.2 mph 33.4 mph N/A   Clear
12:35 PM 37.4 °F 26.6 °F 24.3 °F 59% 30.24 in 10.0 mi SSW 21.9 mph 32.2 mph N/A   Clear
12:55 PM 38.3 °F 27.1 °F 25.0 °F 59% 30.22 in 10.0 mi SSW 25.3 mph 35.7 mph N/A   Clear
1:15 PM 39.2 °F 28.0 °F 25.3 °F 58% 30.20 in 10.0 mi South 26.5 mph 32.2 mph N/A   Clear
1:35 PM 38.8 °F 27.3 °F 24.6 °F 57% 30.18 in 10.0 mi South 27.6 mph 34.5 mph N/A   Clear
1:55 PM 39.4 °F 28.5 °F 25.3 °F 57% 30.17 in 10.0 mi South 25.3 mph 34.5 mph N/A   Clear
2:15 PM 39.7 °F 29.7 °F 25.9 °F 58% 30.15 in 10.0 mi South 21.9 mph 32.2 mph N/A   Clear
2:35 PM 39.2 °F 29.0 °F 26.2 °F 60% 30.14 in 10.0 mi South 21.9 mph 31.1 mph N/A   Clear
2:55 PM 39.2 °F 28.5 °F 26.6 °F 61% 30.13 in 10.0 mi South 24.2 mph 31.1 mph N/A   Clear
3:15 PM 39.2 °F 29.0 °F 26.1 °F 59% 30.11 in 10.0 mi South 21.9 mph 29.9 mph N/A   Clear
3:35 PM 38.8 °F 28.0 °F 26.6 °F 61% 30.09 in 10.0 mi South 24.2 mph 35.7 mph N/A   Clear
3:55 PM 38.3 °F 27.3 °F 26.6 °F 63% 30.08 in 10.0 mi South 24.2 mph 35.7 mph N/A   Clear
4:15 PM 37.8 °F 27.1 °F 26.6 °F 64% 30.07 in 10.0 mi South 21.9 mph 32.2 mph N/A   Clear
4:35 PM 37.0 °F 25.4 °F 26.4 °F 65% 30.06 in 10.0 mi South 25.3 mph 34.5 mph N/A   Clear
4:55 PM 36.1 °F 25.5 °F 26.6 °F 68% 30.05 in 10.0 mi South 19.6 mph 32.2 mph N/A   Clear
5:15 PM 35.2 °F 24.4 °F 27.3 °F 73% 30.04 in 10.0 mi South 19.6 mph 27.6 mph N/A   Clear
5:35 PM 35.6 °F 23.7 °F 27.1 °F 71% 30.04 in 10.0 mi South 24.2 mph 34.5 mph N/A   Clear
5:55 PM 35.6 °F 23.2 °F 27.1 °F 71% 30.03 in 10.0 mi South 26.5 mph 34.5 mph N/A   Clear
6:15 PM 35.1 °F 23.3 °F 27.3 °F 73% 30.03 in 10.0 mi South 23.0 mph 33.4 mph N/A   Clear
6:35 PM 35.2 °F 24.1 °F 27.5 °F 73% 30.03 in 10.0 mi South 20.7 mph 32.2 mph N/A   Clear
6:55 PM 35.1 °F 24.5 °F 27.5 °F 74% 30.04 in 10.0 mi South 18.4 mph 24.2 mph N/A   Clear
7:15 PM 35.6 °F 24.5 °F 27.5 °F 72% 30.04 in 10.0 mi South 20.7 mph 25.3 mph N/A   Clear
7:35 PM 36.1 °F 25.9 °F 27.5 °F 71% 30.04 in 10.0 mi South 18.4 mph 27.6 mph N/A   Clear
7:55 PM 36.5 °F 25.2 °F 27.5 °F 70% 30.03 in 10.0 mi South 23.0 mph 29.9 mph N/A   Clear
8:15 PM 36.9 °F 25.6 °F 27.5 °F 69% 30.03 in 10.0 mi SSW 23.0 mph 31.1 mph N/A   Clear
8:35 PM 36.5 °F 25.4 °F 28.0 °F 71% 30.02 in 10.0 mi SSW 21.9 mph 28.8 mph N/A   Clear
8:55 PM 36.1 °F 25.2 °F 28.2 °F 73% 30.02 in 10.0 mi SSW 20.7 mph 28.8 mph N/A   Clear
9:15 PM 35.6 °F 24.5 °F 28.4 °F 75% 30.02 in 10.0 mi SSW 20.7 mph 26.5 mph N/A   Clear
9:35 PM 35.6 °F 24.0 °F 28.0 °F 74% 30.01 in 10.0 mi SSW 23.0 mph 28.8 mph N/A   Clear
9:55 PM 36.0 °F 24.7 °F 27.9 °F 72% 30.01 in 10.0 mi SSW 21.9 mph 31.1 mph N/A   Clear
10:15 PM 35.6 °F 24.2 °F 28.0 °F 74% 30.00 in 10.0 mi SSW 21.9 mph 28.8 mph N/A   Clear
10:35 PM 36.0 °F 25.0 °F 28.0 °F 73% 30.00 in 10.0 mi SSW 20.7 mph 28.8 mph N/A   Clear
10:55 PM 36.1 °F 25.2 °F 28.2 °F 73% 30.00 in 10.0 mi SSW 20.7 mph 27.6 mph N/A   Clear
11:15 PM 36.5 °F 24.9 °F 28.4 °F 72% 30.00 in 10.0 mi SSW 24.2 mph 31.1 mph N/A   Clear
11:35 PM 36.1 °F 24.7 °F 28.4 °F 73% 29.99 in 10.0 mi SSW 23.0 mph 32.2 mph N/A   Clear
11:55 PM 36.3 °F 24.4 °F 28.4 °F 73% 29.99 in 10.0 mi SSW 25.3 mph 34.5 mph N/A   Clear